sensor_id;sensor_type;location;lat;lon;timestamp;P1;durP1;ratioP1;P2;durP2;ratioP2
6207;SDS011;3137;51.550;7.060;2023-11-19T00:01:55;10.20;;;9.70;;
6207;SDS011;3137;51.550;7.060;2023-11-19T00:04:23;22.63;;;20.67;;
6207;SDS011;3137;51.550;7.060;2023-11-19T00:06:49;13.50;;;12.60;;
6207;SDS011;3137;51.550;7.060;2023-11-19T00:09:16;15.57;;;14.40;;
6207;SDS011;3137;51.550;7.060;2023-11-19T00:11:44;19.97;;;18.43;;
6207;SDS011;3137;51.550;7.060;2023-11-19T00:14:19;28.60;;;25.90;;
6207;SDS011;3137;51.550;7.060;2023-11-19T00:16:46;30.30;;;27.47;;
6207;SDS011;3137;51.550;7.060;2023-11-19T00:19:12;16.57;;;15.43;;
6207;SDS011;3137;51.550;7.060;2023-11-19T00:21:39;14.40;;;13.30;;
6207;SDS011;3137;51.550;7.060;2023-11-19T00:24:07;11.70;;;11.10;;
6207;SDS011;3137;51.550;7.060;2023-11-19T00:26:34;23.13;;;20.83;;
6207;SDS011;3137;51.550;7.060;2023-11-19T00:29:01;23.57;;;21.23;;
6207;SDS011;3137;51.550;7.060;2023-11-19T00:31:28;19.27;;;17.67;;
6207;SDS011;3137;51.550;7.060;2023-11-19T00:33:56;24.13;;;22.03;;
6207;SDS011;3137;51.550;7.060;2023-11-19T00:36:23;29.73;;;26.87;;
6207;SDS011;3137;51.550;7.060;2023-11-19T00:38:50;22.83;;;20.70;;
6207;SDS011;3137;51.550;7.060;2023-11-19T00:41:16;29.83;;;26.73;;
6207;SDS011;3137;51.550;7.060;2023-11-19T00:43:43;35.63;;;31.97;;
6207;SDS011;3137;51.550;7.060;2023-11-19T00:46:10;32.83;;;29.17;;
6207;SDS011;3137;51.550;7.060;2023-11-19T00:48:40;27.57;;;24.70;;
6207;SDS011;3137;51.550;7.060;2023-11-19T00:51:07;27.47;;;23.77;;
6207;SDS011;3137;51.550;7.060;2023-11-19T00:53:34;28.27;;;25.43;;
6207;SDS011;3137;51.550;7.060;2023-11-19T00:56:00;29.33;;;26.53;;
6207;SDS011;3137;51.550;7.060;2023-11-19T00:58:27;29.43;;;24.57;;
6207;SDS011;3137;51.550;7.060;2023-11-19T01:00:53;18.87;;;17.47;;
6207;SDS011;3137;51.550;7.060;2023-11-19T01:03:20;22.07;;;20.10;;
6207;SDS011;3137;51.550;7.060;2023-11-19T01:05:47;18.40;;;17.00;;
6207;SDS011;3137;51.550;7.060;2023-11-19T01:08:13;17.03;;;15.73;;
6207;SDS011;3137;51.550;7.060;2023-11-19T01:10:42;16.67;;;15.43;;
6207;SDS011;3137;51.550;7.060;2023-11-19T01:13:08;12.47;;;11.07;;
6207;SDS011;3137;51.550;7.060;2023-11-19T01:15:35;11.13;;;10.43;;
6207;SDS011;3137;51.550;7.060;2023-11-19T01:18:01;10.70;;;9.90;;
6207;SDS011;3137;51.550;7.060;2023-11-19T01:20:31;12.37;;;11.30;;
6207;SDS011;3137;51.550;7.060;2023-11-19T01:22:57;10.43;;;9.63;;
6207;SDS011;3137;51.550;7.060;2023-11-19T01:25:24;10.80;;;9.23;;
6207;SDS011;3137;51.550;7.060;2023-11-19T01:27:50;10.30;;;9.47;;
6207;SDS011;3137;51.550;7.060;2023-11-19T01:30:17;9.77;;;9.17;;
6207;SDS011;3137;51.550;7.060;2023-11-19T01:32:43;9.83;;;9.20;;
6207;SDS011;3137;51.550;7.060;2023-11-19T01:35:10;10.33;;;9.73;;
6207;SDS011;3137;51.550;7.060;2023-11-19T01:37:36;11.33;;;10.53;;
6207;SDS011;3137;51.550;7.060;2023-11-19T01:40:03;12.00;;;10.97;;
6207;SDS011;3137;51.550;7.060;2023-11-19T01:42:35;10.03;;;9.43;;
6207;SDS011;3137;51.550;7.060;2023-11-19T01:45:05;10.60;;;9.63;;
6207;SDS011;3137;51.550;7.060;2023-11-19T01:47:35;10.40;;;9.70;;
6207;SDS011;3137;51.550;7.060;2023-11-19T01:50:03;10.20;;;9.63;;
6207;SDS011;3137;51.550;7.060;2023-11-19T01:52:32;9.80;;;9.13;;
6207;SDS011;3137;51.550;7.060;2023-11-19T01:55:02;15.43;;;8.87;;
6207;SDS011;3137;51.550;7.060;2023-11-19T01:57:29;8.93;;;8.53;;
6207;SDS011;3137;51.550;7.060;2023-11-19T01:59:56;9.23;;;8.50;;
6207;SDS011;3137;51.550;7.060;2023-11-19T02:02:23;9.20;;;8.70;;
6207;SDS011;3137;51.550;7.060;2023-11-19T02:04:50;11.57;;;10.97;;
6207;SDS011;3137;51.550;7.060;2023-11-19T02:07:17;33.37;;;29.73;;
6207;SDS011;3137;51.550;7.060;2023-11-19T02:09:44;29.43;;;26.70;;
6207;SDS011;3137;51.550;7.060;2023-11-19T02:12:11;9.93;;;9.07;;
6207;SDS011;3137;51.550;7.060;2023-11-19T02:14:38;8.83;;;8.17;;
6207;SDS011;3137;51.550;7.060;2023-11-19T02:17:04;8.23;;;7.83;;
6207;SDS011;3137;51.550;7.060;2023-11-19T02:19:31;9.87;;;9.43;;
6207;SDS011;3137;51.550;7.060;2023-11-19T02:21:58;15.43;;;14.40;;
6207;SDS011;3137;51.550;7.060;2023-11-19T02:24:24;10.50;;;9.93;;
6207;SDS011;3137;51.550;7.060;2023-11-19T02:27:08;7.30;;;7.10;;
6207;SDS011;3137;51.550;7.060;2023-11-19T02:29:42;8.80;;;8.23;;
6207;SDS011;3137;51.550;7.060;2023-11-19T02:32:08;8.57;;;7.83;;
6207;SDS011;3137;51.550;7.060;2023-11-19T02:34:35;8.70;;;7.73;;
6207;SDS011;3137;51.550;7.060;2023-11-19T02:37:02;7.83;;;7.03;;
6207;SDS011;3137;51.550;7.060;2023-11-19T02:39:29;7.23;;;6.73;;
6207;SDS011;3137;51.550;7.060;2023-11-19T02:41:55;7.37;;;6.70;;
6207;SDS011;3137;51.550;7.060;2023-11-19T02:44:22;13.83;;;7.13;;
6207;SDS011;3137;51.550;7.060;2023-11-19T02:46:48;11.97;;;7.10;;
6207;SDS011;3137;51.550;7.060;2023-11-19T02:49:15;8.90;;;6.33;;
6207;SDS011;3137;51.550;7.060;2023-11-19T02:51:41;6.90;;;6.33;;
6207;SDS011;3137;51.550;7.060;2023-11-19T02:54:08;13.07;;;6.27;;
6207;SDS011;3137;51.550;7.060;2023-11-19T02:56:36;7.40;;;6.80;;
6207;SDS011;3137;51.550;7.060;2023-11-19T02:59:03;9.77;;;6.17;;
6207;SDS011;3137;51.550;7.060;2023-11-19T03:01:41;9.27;;;6.27;;
6207;SDS011;3137;51.550;7.060;2023-11-19T03:04:10;6.87;;;6.10;;
6207;SDS011;3137;51.550;7.060;2023-11-19T03:06:38;16.83;;;6.37;;
6207;SDS011;3137;51.550;7.060;2023-11-19T03:09:05;5.67;;;5.23;;
6207;SDS011;3137;51.550;7.060;2023-11-19T03:11:36;9.27;;;5.50;;
6207;SDS011;3137;51.550;7.060;2023-11-19T03:14:03;10.97;;;5.07;;
6207;SDS011;3137;51.550;7.060;2023-11-19T03:16:30;5.97;;;5.27;;
6207;SDS011;3137;51.550;7.060;2023-11-19T03:18:56;4.70;;;4.37;;
6207;SDS011;3137;51.550;7.060;2023-11-19T03:21:29;11.90;;;5.23;;
6207;SDS011;3137;51.550;7.060;2023-11-19T03:23:57;12.07;;;5.37;;
6207;SDS011;3137;51.550;7.060;2023-11-19T03:26:27;11.07;;;4.50;;
6207;SDS011;3137;51.550;7.060;2023-11-19T03:28:53;17.77;;;5.90;;
6207;SDS011;3137;51.550;7.060;2023-11-19T03:31:20;10.43;;;4.33;;
6207;SDS011;3137;51.550;7.060;2023-11-19T03:33:47;7.60;;;4.80;;
6207;SDS011;3137;51.550;7.060;2023-11-19T03:36:13;5.87;;;4.70;;
6207;SDS011;3137;51.550;7.060;2023-11-19T03:38:40;17.67;;;6.33;;
6207;SDS011;3137;51.550;7.060;2023-11-19T03:41:12;11.53;;;6.10;;
6207;SDS011;3137;51.550;7.060;2023-11-19T03:43:39;13.97;;;5.87;;
6207;SDS011;3137;51.550;7.060;2023-11-19T03:46:19;17.13;;;6.67;;
6207;SDS011;3137;51.550;7.060;2023-11-19T03:48:48;6.73;;;5.60;;
6207;SDS011;3137;51.550;7.060;2023-11-19T03:51:15;14.70;;;6.00;;
6207;SDS011;3137;51.550;7.060;2023-11-19T03:53:42;14.23;;;5.10;;
6207;SDS011;3137;51.550;7.060;2023-11-19T03:56:10;6.97;;;5.27;;
6207;SDS011;3137;51.550;7.060;2023-11-19T03:58:37;8.77;;;4.27;;
6207;SDS011;3137;51.550;7.060;2023-11-19T04:01:05;12.43;;;5.33;;
6207;SDS011;3137;51.550;7.060;2023-11-19T04:03:32;8.50;;;4.57;;
6207;SDS011;3137;51.550;7.060;2023-11-19T04:05:59;14.93;;;4.23;;
6207;SDS011;3137;51.550;7.060;2023-11-19T04:08:25;10.97;;;3.97;;
6207;SDS011;3137;51.550;7.060;2023-11-19T04:10:52;11.47;;;4.60;;
6207;SDS011;3137;51.550;7.060;2023-11-19T04:13:19;8.33;;;4.37;;
6207;SDS011;3137;51.550;7.060;2023-11-19T04:15:45;16.77;;;4.47;;
6207;SDS011;3137;51.550;7.060;2023-11-19T04:18:12;10.07;;;4.17;;
6207;SDS011;3137;51.550;7.060;2023-11-19T04:20:39;8.87;;;4.20;;
6207;SDS011;3137;51.550;7.060;2023-11-19T04:23:08;11.73;;;4.73;;
6207;SDS011;3137;51.550;7.060;2023-11-19T04:25:35;15.10;;;5.50;;
6207;SDS011;3137;51.550;7.060;2023-11-19T04:28:01;17.60;;;4.43;;
6207;SDS011;3137;51.550;7.060;2023-11-19T04:30:28;20.60;;;4.87;;
6207;SDS011;3137;51.550;7.060;2023-11-19T04:32:55;9.53;;;4.13;;
6207;SDS011;3137;51.550;7.060;2023-11-19T04:35:22;13.40;;;5.37;;
6207;SDS011;3137;51.550;7.060;2023-11-19T04:37:48;19.03;;;5.30;;
6207;SDS011;3137;51.550;7.060;2023-11-19T04:40:15;9.97;;;4.33;;
6207;SDS011;3137;51.550;7.060;2023-11-19T04:42:42;24.10;;;4.57;;
6207;SDS011;3137;51.550;7.060;2023-11-19T04:45:08;15.30;;;4.80;;
6207;SDS011;3137;51.550;7.060;2023-11-19T04:47:36;22.47;;;3.93;;
6207;SDS011;3137;51.550;7.060;2023-11-19T04:50:03;11.03;;;4.27;;
6207;SDS011;3137;51.550;7.060;2023-11-19T04:52:30;11.70;;;4.87;;
6207;SDS011;3137;51.550;7.060;2023-11-19T04:54:57;13.40;;;4.53;;
6207;SDS011;3137;51.550;7.060;2023-11-19T04:57:23;20.90;;;4.57;;
6207;SDS011;3137;51.550;7.060;2023-11-19T04:59:49;13.87;;;5.77;;
6207;SDS011;3137;51.550;7.060;2023-11-19T05:02:16;25.60;;;4.73;;
6207;SDS011;3137;51.550;7.060;2023-11-19T05:04:43;23.43;;;4.43;;
6207;SDS011;3137;51.550;7.060;2023-11-19T05:07:13;15.30;;;4.80;;
6207;SDS011;3137;51.550;7.060;2023-11-19T05:09:40;22.77;;;4.77;;
6207;SDS011;3137;51.550;7.060;2023-11-19T05:12:07;15.73;;;4.97;;
6207;SDS011;3137;51.550;7.060;2023-11-19T05:14:38;16.03;;;4.90;;
6207;SDS011;3137;51.550;7.060;2023-11-19T05:17:04;26.30;;;4.80;;
6207;SDS011;3137;51.550;7.060;2023-11-19T05:19:31;16.70;;;5.20;;
6207;SDS011;3137;51.550;7.060;2023-11-19T05:21:57;17.00;;;4.50;;
6207;SDS011;3137;51.550;7.060;2023-11-19T05:24:24;15.63;;;4.63;;
6207;SDS011;3137;51.550;7.060;2023-11-19T05:26:51;18.93;;;5.67;;
6207;SDS011;3137;51.550;7.060;2023-11-19T05:29:18;29.57;;;6.43;;
6207;SDS011;3137;51.550;7.060;2023-11-19T05:31:44;30.83;;;5.20;;
6207;SDS011;3137;51.550;7.060;2023-11-19T05:34:11;19.87;;;5.23;;
6207;SDS011;3137;51.550;7.060;2023-11-19T05:36:38;21.90;;;5.33;;
6207;SDS011;3137;51.550;7.060;2023-11-19T05:39:05;22.90;;;6.07;;
6207;SDS011;3137;51.550;7.060;2023-11-19T05:41:32;22.33;;;5.40;;
6207;SDS011;3137;51.550;7.060;2023-11-19T05:43:58;30.50;;;6.30;;
6207;SDS011;3137;51.550;7.060;2023-11-19T05:46:25;16.73;;;6.03;;
6207;SDS011;3137;51.550;7.060;2023-11-19T05:48:53;20.60;;;5.77;;
6207;SDS011;3137;51.550;7.060;2023-11-19T05:51:20;18.33;;;5.17;;
6207;SDS011;3137;51.550;7.060;2023-11-19T05:53:46;24.37;;;5.50;;
6207;SDS011;3137;51.550;7.060;2023-11-19T05:56:13;23.13;;;4.87;;
6207;SDS011;3137;51.550;7.060;2023-11-19T05:58:41;24.60;;;5.33;;
6207;SDS011;3137;51.550;7.060;2023-11-19T06:01:10;18.10;;;4.97;;
6207;SDS011;3137;51.550;7.060;2023-11-19T06:03:37;24.90;;;5.20;;
6207;SDS011;3137;51.550;7.060;2023-11-19T06:06:04;18.77;;;5.73;;
6207;SDS011;3137;51.550;7.060;2023-11-19T06:08:31;22.10;;;7.10;;
6207;SDS011;3137;51.550;7.060;2023-11-19T06:10:58;23.07;;;6.83;;
6207;SDS011;3137;51.550;7.060;2023-11-19T06:13:26;22.30;;;6.13;;
6207;SDS011;3137;51.550;7.060;2023-11-19T06:15:53;22.20;;;5.90;;
6207;SDS011;3137;51.550;7.060;2023-11-19T06:18:19;22.37;;;7.23;;
6207;SDS011;3137;51.550;7.060;2023-11-19T06:20:47;32.70;;;6.73;;
6207;SDS011;3137;51.550;7.060;2023-11-19T06:23:13;24.17;;;5.67;;
6207;SDS011;3137;51.550;7.060;2023-11-19T06:25:40;27.47;;;5.90;;
6207;SDS011;3137;51.550;7.060;2023-11-19T06:28:07;42.33;;;6.63;;
6207;SDS011;3137;51.550;7.060;2023-11-19T06:30:33;25.67;;;5.37;;
6207;SDS011;3137;51.550;7.060;2023-11-19T06:33:00;27.87;;;5.87;;
6207;SDS011;3137;51.550;7.060;2023-11-19T06:35:26;29.17;;;5.80;;
6207;SDS011;3137;51.550;7.060;2023-11-19T06:37:55;19.03;;;4.43;;
6207;SDS011;3137;51.550;7.060;2023-11-19T06:40:22;20.43;;;5.17;;
6207;SDS011;3137;51.550;7.060;2023-11-19T06:42:48;20.30;;;5.20;;
6207;SDS011;3137;51.550;7.060;2023-11-19T06:45:15;17.37;;;6.10;;
6207;SDS011;3137;51.550;7.060;2023-11-19T06:47:42;18.63;;;5.70;;
6207;SDS011;3137;51.550;7.060;2023-11-19T06:50:08;24.70;;;6.70;;
6207;SDS011;3137;51.550;7.060;2023-11-19T06:52:35;25.90;;;6.17;;
6207;SDS011;3137;51.550;7.060;2023-11-19T06:55:03;16.43;;;6.13;;
6207;SDS011;3137;51.550;7.060;2023-11-19T06:57:34;15.40;;;5.60;;
6207;SDS011;3137;51.550;7.060;2023-11-19T07:00:01;29.57;;;6.30;;
6207;SDS011;3137;51.550;7.060;2023-11-19T07:02:27;28.30;;;5.97;;
6207;SDS011;3137;51.550;7.060;2023-11-19T07:04:54;21.47;;;5.27;;
6207;SDS011;3137;51.550;7.060;2023-11-19T07:07:21;28.27;;;5.33;;
6207;SDS011;3137;51.550;7.060;2023-11-19T07:09:47;23.07;;;6.17;;
6207;SDS011;3137;51.550;7.060;2023-11-19T07:12:14;24.13;;;7.10;;
6207;SDS011;3137;51.550;7.060;2023-11-19T07:14:41;32.03;;;6.37;;
6207;SDS011;3137;51.550;7.060;2023-11-19T07:17:10;25.27;;;6.40;;
6207;SDS011;3137;51.550;7.060;2023-11-19T07:19:37;25.80;;;5.30;;
6207;SDS011;3137;51.550;7.060;2023-11-19T07:22:04;17.90;;;5.27;;
6207;SDS011;3137;51.550;7.060;2023-11-19T07:24:32;20.50;;;4.63;;
6207;SDS011;3137;51.550;7.060;2023-11-19T07:26:59;28.13;;;5.40;;
6207;SDS011;3137;51.550;7.060;2023-11-19T07:29:26;26.33;;;5.47;;
6207;SDS011;3137;51.550;7.060;2023-11-19T07:31:55;22.30;;;5.70;;
6207;SDS011;3137;51.550;7.060;2023-11-19T07:34:23;16.40;;;5.53;;
6207;SDS011;3137;51.550;7.060;2023-11-19T07:36:50;20.83;;;5.33;;
6207;SDS011;3137;51.550;7.060;2023-11-19T07:39:17;19.30;;;5.83;;
6207;SDS011;3137;51.550;7.060;2023-11-19T07:41:44;27.60;;;5.83;;
6207;SDS011;3137;51.550;7.060;2023-11-19T07:44:10;30.17;;;5.70;;
6207;SDS011;3137;51.550;7.060;2023-11-19T07:46:37;22.97;;;5.20;;
6207;SDS011;3137;51.550;7.060;2023-11-19T07:49:04;19.27;;;5.47;;
6207;SDS011;3137;51.550;7.060;2023-11-19T07:51:30;32.13;;;4.80;;
6207;SDS011;3137;51.550;7.060;2023-11-19T07:53:57;25.93;;;4.97;;
6207;SDS011;3137;51.550;7.060;2023-11-19T07:56:24;25.33;;;5.20;;
6207;SDS011;3137;51.550;7.060;2023-11-19T07:58:51;29.43;;;6.10;;
6207;SDS011;3137;51.550;7.060;2023-11-19T08:01:18;27.57;;;6.30;;
6207;SDS011;3137;51.550;7.060;2023-11-19T08:03:44;38.73;;;5.47;;
6207;SDS011;3137;51.550;7.060;2023-11-19T08:06:14;28.97;;;4.80;;
6207;SDS011;3137;51.550;7.060;2023-11-19T08:08:40;29.03;;;5.00;;
6207;SDS011;3137;51.550;7.060;2023-11-19T08:11:06;37.17;;;5.97;;
6207;SDS011;3137;51.550;7.060;2023-11-19T08:13:33;26.40;;;5.77;;
6207;SDS011;3137;51.550;7.060;2023-11-19T08:15:59;31.73;;;5.03;;
6207;SDS011;3137;51.550;7.060;2023-11-19T08:18:26;35.17;;;6.37;;
6207;SDS011;3137;51.550;7.060;2023-11-19T08:20:53;30.03;;;4.60;;
6207;SDS011;3137;51.550;7.060;2023-11-19T08:23:20;27.50;;;5.40;;
6207;SDS011;3137;51.550;7.060;2023-11-19T08:25:47;20.10;;;6.33;;
6207;SDS011;3137;51.550;7.060;2023-11-19T08:28:13;21.70;;;5.67;;
6207;SDS011;3137;51.550;7.060;2023-11-19T08:30:40;31.77;;;5.10;;
6207;SDS011;3137;51.550;7.060;2023-11-19T08:33:06;20.63;;;5.10;;
6207;SDS011;3137;51.550;7.060;2023-11-19T08:35:33;29.27;;;6.20;;
6207;SDS011;3137;51.550;7.060;2023-11-19T08:38:00;17.77;;;5.07;;
6207;SDS011;3137;51.550;7.060;2023-11-19T08:40:26;30.23;;;6.17;;
6207;SDS011;3137;51.550;7.060;2023-11-19T08:42:53;35.10;;;6.43;;
6207;SDS011;3137;51.550;7.060;2023-11-19T08:45:19;21.37;;;5.50;;
6207;SDS011;3137;51.550;7.060;2023-11-19T08:47:46;26.97;;;6.03;;
6207;SDS011;3137;51.550;7.060;2023-11-19T08:50:13;32.80;;;5.30;;
6207;SDS011;3137;51.550;7.060;2023-11-19T08:52:39;23.77;;;4.70;;
6207;SDS011;3137;51.550;7.060;2023-11-19T08:55:06;37.17;;;6.10;;
6207;SDS011;3137;51.550;7.060;2023-11-19T08:57:33;19.80;;;4.57;;
6207;SDS011;3137;51.550;7.060;2023-11-19T08:59:59;33.10;;;5.33;;
6207;SDS011;3137;51.550;7.060;2023-11-19T09:02:26;28.60;;;6.07;;
6207;SDS011;3137;51.550;7.060;2023-11-19T09:04:52;35.30;;;7.23;;
6207;SDS011;3137;51.550;7.060;2023-11-19T09:07:20;24.70;;;5.63;;
6207;SDS011;3137;51.550;7.060;2023-11-19T09:09:47;19.07;;;5.20;;
6207;SDS011;3137;51.550;7.060;2023-11-19T09:12:14;29.63;;;5.93;;
6207;SDS011;3137;51.550;7.060;2023-11-19T09:14:40;44.90;;;6.97;;
6207;SDS011;3137;51.550;7.060;2023-11-19T09:17:08;23.60;;;6.00;;
6207;SDS011;3137;51.550;7.060;2023-11-19T09:19:35;36.90;;;7.17;;
6207;SDS011;3137;51.550;7.060;2023-11-19T09:22:02;29.43;;;7.40;;
6207;SDS011;3137;51.550;7.060;2023-11-19T09:24:29;25.43;;;4.77;;
6207;SDS011;3137;51.550;7.060;2023-11-19T09:26:55;31.07;;;6.73;;
6207;SDS011;3137;51.550;7.060;2023-11-19T09:29:22;27.33;;;7.03;;
6207;SDS011;3137;51.550;7.060;2023-11-19T09:31:50;19.80;;;5.17;;
6207;SDS011;3137;51.550;7.060;2023-11-19T09:34:16;32.87;;;6.03;;
6207;SDS011;3137;51.550;7.060;2023-11-19T09:36:43;23.43;;;5.37;;
6207;SDS011;3137;51.550;7.060;2023-11-19T09:39:11;34.73;;;5.80;;
6207;SDS011;3137;51.550;7.060;2023-11-19T09:41:39;26.47;;;6.23;;
6207;SDS011;3137;51.550;7.060;2023-11-19T09:44:05;29.37;;;6.40;;
6207;SDS011;3137;51.550;7.060;2023-11-19T09:46:32;33.37;;;6.57;;
6207;SDS011;3137;51.550;7.060;2023-11-19T09:48:59;19.70;;;5.40;;
6207;SDS011;3137;51.550;7.060;2023-11-19T09:51:28;19.23;;;5.27;;
6207;SDS011;3137;51.550;7.060;2023-11-19T09:53:55;22.67;;;5.77;;
6207;SDS011;3137;51.550;7.060;2023-11-19T09:56:22;27.07;;;6.77;;
6207;SDS011;3137;51.550;7.060;2023-11-19T09:58:49;29.43;;;5.43;;
6207;SDS011;3137;51.550;7.060;2023-11-19T10:01:16;34.13;;;7.27;;
6207;SDS011;3137;51.550;7.060;2023-11-19T10:03:54;17.80;;;4.17;;
6207;SDS011;3137;51.550;7.060;2023-11-19T10:06:22;19.60;;;4.67;;
6207;SDS011;3137;51.550;7.060;2023-11-19T10:08:51;19.53;;;4.97;;
6207;SDS011;3137;51.550;7.060;2023-11-19T10:11:17;27.13;;;4.90;;
6207;SDS011;3137;51.550;7.060;2023-11-19T10:13:44;22.27;;;5.50;;
6207;SDS011;3137;51.550;7.060;2023-11-19T10:16:14;27.20;;;5.67;;
6207;SDS011;3137;51.550;7.060;2023-11-19T10:18:47;33.03;;;5.33;;
6207;SDS011;3137;51.550;7.060;2023-11-19T10:21:19;20.63;;;4.23;;
6207;SDS011;3137;51.550;7.060;2023-11-19T10:23:52;28.10;;;5.67;;
6207;SDS011;3137;51.550;7.060;2023-11-19T10:26:21;32.70;;;6.20;;
6207;SDS011;3137;51.550;7.060;2023-11-19T10:28:47;27.63;;;6.20;;
6207;SDS011;3137;51.550;7.060;2023-11-19T10:31:15;20.00;;;5.07;;
6207;SDS011;3137;51.550;7.060;2023-11-19T10:33:43;28.57;;;5.50;;
6207;SDS011;3137;51.550;7.060;2023-11-19T10:36:11;16.13;;;4.60;;
6207;SDS011;3137;51.550;7.060;2023-11-19T10:38:39;37.40;;;6.97;;
6207;SDS011;3137;51.550;7.060;2023-11-19T10:41:06;26.10;;;6.33;;
6207;SDS011;3137;51.550;7.060;2023-11-19T10:43:42;27.00;;;6.47;;
6207;SDS011;3137;51.550;7.060;2023-11-19T10:46:13;21.47;;;4.87;;
6207;SDS011;3137;51.550;7.060;2023-11-19T10:48:40;32.10;;;5.83;;
6207;SDS011;3137;51.550;7.060;2023-11-19T10:51:07;29.83;;;4.90;;
6207;SDS011;3137;51.550;7.060;2023-11-19T10:53:37;26.17;;;5.60;;
6207;SDS011;3137;51.550;7.060;2023-11-19T10:56:06;25.23;;;5.80;;
6207;SDS011;3137;51.550;7.060;2023-11-19T10:58:37;20.00;;;5.20;;
6207;SDS011;3137;51.550;7.060;2023-11-19T11:01:16;19.37;;;5.10;;
6207;SDS011;3137;51.550;7.060;2023-11-19T11:03:48;32.00;;;5.80;;
6207;SDS011;3137;51.550;7.060;2023-11-19T11:06:17;17.90;;;5.70;;
6207;SDS011;3137;51.550;7.060;2023-11-19T11:08:46;29.17;;;6.30;;
6207;SDS011;3137;51.550;7.060;2023-11-19T11:11:13;19.00;;;5.73;;
6207;SDS011;3137;51.550;7.060;2023-11-19T11:13:47;14.23;;;4.60;;
6207;SDS011;3137;51.550;7.060;2023-11-19T11:16:13;21.67;;;5.10;;
6207;SDS011;3137;51.550;7.060;2023-11-19T11:18:41;23.93;;;5.80;;
6207;SDS011;3137;51.550;7.060;2023-11-19T11:21:11;18.53;;;4.57;;
6207;SDS011;3137;51.550;7.060;2023-11-19T11:29:41;23.60;;;5.60;;
6207;SDS011;3137;51.550;7.060;2023-11-19T11:37:32;30.77;;;5.60;;
6207;SDS011;3137;51.550;7.060;2023-11-19T11:40:04;21.30;;;4.77;;
6207;SDS011;3137;51.550;7.060;2023-11-19T11:42:36;35.23;;;5.70;;
6207;SDS011;3137;51.550;7.060;2023-11-19T11:45:04;19.67;;;5.87;;
6207;SDS011;3137;51.550;7.060;2023-11-19T11:50:12;23.23;;;5.07;;
6207;SDS011;3137;51.550;7.060;2023-11-19T11:55:27;21.03;;;5.50;;
6207;SDS011;3137;51.550;7.060;2023-11-19T11:57:55;16.73;;;4.30;;
6207;SDS011;3137;51.550;7.060;2023-11-19T12:00:22;22.60;;;5.00;;
6207;SDS011;3137;51.550;7.060;2023-11-19T12:02:56;21.27;;;4.57;;
6207;SDS011;3137;51.550;7.060;2023-11-19T12:05:25;18.67;;;5.17;;
6207;SDS011;3137;51.550;7.060;2023-11-19T12:07:55;22.63;;;6.60;;
6207;SDS011;3137;51.550;7.060;2023-11-19T12:10:31;16.97;;;4.33;;
6207;SDS011;3137;51.550;7.060;2023-11-19T12:12:59;22.30;;;5.77;;
6207;SDS011;3137;51.550;7.060;2023-11-19T12:15:28;15.30;;;5.37;;
6207;SDS011;3137;51.550;7.060;2023-11-19T12:17:55;15.93;;;5.63;;
6207;SDS011;3137;51.550;7.060;2023-11-19T12:20:22;25.87;;;5.53;;
6207;SDS011;3137;51.550;7.060;2023-11-19T12:22:55;24.30;;;6.10;;
6207;SDS011;3137;51.550;7.060;2023-11-19T12:25:22;20.90;;;5.03;;
6207;SDS011;3137;51.550;7.060;2023-11-19T12:27:50;20.10;;;4.77;;
6207;SDS011;3137;51.550;7.060;2023-11-19T12:30:21;24.20;;;5.17;;
6207;SDS011;3137;51.550;7.060;2023-11-19T12:32:53;22.33;;;4.33;;
6207;SDS011;3137;51.550;7.060;2023-11-19T12:35:20;14.97;;;4.33;;
6207;SDS011;3137;51.550;7.060;2023-11-19T12:37:47;22.50;;;4.73;;
6207;SDS011;3137;51.550;7.060;2023-11-19T12:40:16;11.87;;;4.20;;
6207;SDS011;3137;51.550;7.060;2023-11-19T12:42:47;17.43;;;4.77;;
6207;SDS011;3137;51.550;7.060;2023-11-19T12:45:15;13.77;;;4.80;;
6207;SDS011;3137;51.550;7.060;2023-11-19T12:47:43;16.87;;;4.50;;
6207;SDS011;3137;51.550;7.060;2023-11-19T12:50:10;13.57;;;4.70;;
6207;SDS011;3137;51.550;7.060;2023-11-19T12:52:37;26.07;;;5.30;;
6207;SDS011;3137;51.550;7.060;2023-11-19T12:55:04;16.67;;;4.80;;
6207;SDS011;3137;51.550;7.060;2023-11-19T12:57:36;20.43;;;5.23;;
6207;SDS011;3137;51.550;7.060;2023-11-19T13:00:07;17.20;;;4.00;;
6207;SDS011;3137;51.550;7.060;2023-11-19T13:02:50;14.10;;;3.73;;
6207;SDS011;3137;51.550;7.060;2023-11-19T13:05:23;12.47;;;4.30;;
6207;SDS011;3137;51.550;7.060;2023-11-19T13:07:58;23.07;;;5.10;;
6207;SDS011;3137;51.550;7.060;2023-11-19T13:10:28;21.17;;;5.40;;
6207;SDS011;3137;51.550;7.060;2023-11-19T13:15:29;17.83;;;5.70;;
6207;SDS011;3137;51.550;7.060;2023-11-19T13:17:56;21.57;;;6.23;;
6207;SDS011;3137;51.550;7.060;2023-11-19T13:20:22;33.03;;;6.47;;
6207;SDS011;3137;51.550;7.060;2023-11-19T13:22:58;16.37;;;5.50;;
6207;SDS011;3137;51.550;7.060;2023-11-19T13:25:32;13.77;;;5.37;;
6207;SDS011;3137;51.550;7.060;2023-11-19T13:27:59;24.77;;;5.13;;
6207;SDS011;3137;51.550;7.060;2023-11-19T13:30:26;16.07;;;3.57;;
6207;SDS011;3137;51.550;7.060;2023-11-19T13:32:53;11.90;;;4.23;;
6207;SDS011;3137;51.550;7.060;2023-11-19T13:35:21;10.53;;;3.83;;
6207;SDS011;3137;51.550;7.060;2023-11-19T13:37:49;17.70;;;5.33;;
6207;SDS011;3137;51.550;7.060;2023-11-19T13:40:16;11.70;;;4.63;;
6207;SDS011;3137;51.550;7.060;2023-11-19T13:42:42;14.47;;;5.07;;
6207;SDS011;3137;51.550;7.060;2023-11-19T13:47:39;13.77;;;5.10;;
6207;SDS011;3137;51.550;7.060;2023-11-19T13:50:10;16.63;;;4.97;;
6207;SDS011;3137;51.550;7.060;2023-11-19T13:52:39;21.50;;;4.77;;
6207;SDS011;3137;51.550;7.060;2023-11-19T13:55:07;18.20;;;5.40;;
6207;SDS011;3137;51.550;7.060;2023-11-19T13:57:35;20.13;;;6.00;;
6207;SDS011;3137;51.550;7.060;2023-11-19T14:00:02;14.97;;;5.13;;
6207;SDS011;3137;51.550;7.060;2023-11-19T14:02:36;21.07;;;5.77;;
6207;SDS011;3137;51.550;7.060;2023-11-19T14:05:03;20.70;;;6.47;;
6207;SDS011;3137;51.550;7.060;2023-11-19T14:07:29;19.77;;;5.53;;
6207;SDS011;3137;51.550;7.060;2023-11-19T14:09:56;22.17;;;5.37;;
6207;SDS011;3137;51.550;7.060;2023-11-19T14:12:22;20.43;;;5.57;;
6207;SDS011;3137;51.550;7.060;2023-11-19T14:14:49;13.77;;;4.97;;
6207;SDS011;3137;51.550;7.060;2023-11-19T14:17:15;16.67;;;5.50;;
6207;SDS011;3137;51.550;7.060;2023-11-19T14:19:42;25.30;;;5.90;;
6207;SDS011;3137;51.550;7.060;2023-11-19T14:22:09;22.30;;;5.43;;
6207;SDS011;3137;51.550;7.060;2023-11-19T14:24:36;22.53;;;5.20;;
6207;SDS011;3137;51.550;7.060;2023-11-19T14:27:02;24.20;;;5.57;;
6207;SDS011;3137;51.550;7.060;2023-11-19T14:29:29;13.50;;;5.13;;
6207;SDS011;3137;51.550;7.060;2023-11-19T14:31:56;16.87;;;6.00;;
6207;SDS011;3137;51.550;7.060;2023-11-19T14:34:25;20.63;;;5.40;;
6207;SDS011;3137;51.550;7.060;2023-11-19T14:36:52;18.23;;;5.13;;
6207;SDS011;3137;51.550;7.060;2023-11-19T14:39:20;15.83;;;5.20;;
6207;SDS011;3137;51.550;7.060;2023-11-19T14:41:47;11.73;;;4.80;;
6207;SDS011;3137;51.550;7.060;2023-11-19T14:44:13;20.13;;;5.60;;
6207;SDS011;3137;51.550;7.060;2023-11-19T14:46:40;16.33;;;5.03;;
6207;SDS011;3137;51.550;7.060;2023-11-19T14:49:06;16.83;;;4.37;;
6207;SDS011;3137;51.550;7.060;2023-11-19T14:51:36;11.80;;;5.80;;
6207;SDS011;3137;51.550;7.060;2023-11-19T14:54:04;18.67;;;5.23;;
6207;SDS011;3137;51.550;7.060;2023-11-19T14:56:31;14.77;;;5.43;;
6207;SDS011;3137;51.550;7.060;2023-11-19T14:58:58;14.23;;;5.70;;
6207;SDS011;3137;51.550;7.060;2023-11-19T15:01:25;18.07;;;6.90;;
6207;SDS011;3137;51.550;7.060;2023-11-19T15:03:51;21.20;;;6.83;;
6207;SDS011;3137;51.550;7.060;2023-11-19T15:06:23;16.43;;;5.33;;
6207;SDS011;3137;51.550;7.060;2023-11-19T15:08:54;19.40;;;8.13;;
6207;SDS011;3137;51.550;7.060;2023-11-19T15:11:23;24.67;;;7.13;;
6207;SDS011;3137;51.550;7.060;2023-11-19T15:13:50;20.13;;;5.90;;
6207;SDS011;3137;51.550;7.060;2023-11-19T15:16:16;16.00;;;4.53;;
6207;SDS011;3137;51.550;7.060;2023-11-19T15:18:49;9.40;;;5.27;;
6207;SDS011;3137;51.550;7.060;2023-11-19T15:21:15;12.97;;;4.43;;
6207;SDS011;3137;51.550;7.060;2023-11-19T15:23:42;12.07;;;4.97;;
6207;SDS011;3137;51.550;7.060;2023-11-19T15:26:09;14.27;;;4.10;;